createdAt,value
2022-12-04T00:00:47.358Z,20.10
2022-12-04T00:03:54.914Z,19.17
2022-12-04T00:06:59.101Z,20.27
2022-12-04T00:10:03.937Z,20.10
2022-12-04T00:13:06.800Z,19.05
2022-12-04T00:16:15.693Z,18.50
2022-12-04T00:19:19.777Z,19.23
2022-12-04T00:22:22.894Z,20.60
2022-12-04T00:25:26.870Z,18.90
2022-12-04T00:28:29.760Z,21.65
2022-12-04T00:31:35.546Z,21.50
2022-12-04T00:34:38.282Z,19.50
2022-12-04T00:37:42.263Z,21.67
2022-12-04T00:40:51.787Z,21.23
2022-12-04T00:43:55.800Z,19.73
2022-12-04T00:47:01.595Z,20.52
2022-12-04T00:50:04.863Z,21.10
2022-12-04T00:53:08.829Z,18.83
2022-12-04T00:56:14.094Z,19.17
2022-12-04T00:59:18.077Z,20.02
2022-12-04T01:02:23.442Z,19.83
2022-12-04T01:05:26.154Z,20.67
2022-12-04T01:08:30.244Z,19.07
2022-12-04T01:11:33.590Z,20.02
2022-12-04T01:14:37.635Z,20.95
2022-12-04T01:17:41.739Z,19.90
2022-12-04T01:20:50.235Z,21.00
2022-12-04T01:23:54.494Z,20.13
2022-12-04T01:26:57.203Z,20.48
2022-12-04T01:30:01.336Z,21.10
2022-12-04T01:33:05.441Z,20.65
2022-12-04T01:36:12.240Z,21.50
2022-12-04T01:39:16.439Z,21.00
2022-12-04T01:42:20.467Z,20.73
2022-12-04T01:45:44.617Z,22.98
2022-12-04T01:48:53.967Z,20.35
2022-12-04T01:52:01.123Z,21.17
2022-12-04T01:55:03.896Z,21.07
2022-12-04T01:58:09.003Z,21.13
2022-12-04T02:01:11.948Z,21.88
2022-12-04T02:04:17.392Z,19.48
2022-12-04T02:07:20.343Z,19.50
2022-12-04T02:10:32.172Z,21.27
2022-12-04T02:13:44.451Z,21.38
2022-12-04T02:16:55.291Z,21.58
2022-12-04T02:24:03.488Z,20.90
2022-12-04T02:27:15.332Z,20.47
2022-12-04T02:30:19.734Z,22.70
2022-12-04T02:33:28.727Z,21.13
2022-12-04T02:36:37.508Z,22.33
2022-12-04T02:39:43.160Z,22.67
2022-12-04T02:42:51.009Z,22.00
2022-12-04T02:46:00.748Z,21.92
2022-12-04T02:52:33.065Z,23.02
2022-12-04T02:55:41.023Z,21.93
2022-12-04T02:58:49.357Z,21.00
2022-12-04T03:05:27.046Z,22.50
2022-12-04T03:08:36.339Z,22.38
2022-12-04T03:11:45.800Z,22.67
2022-12-04T03:14:53.695Z,21.50
2022-12-04T03:18:05.705Z,21.92
2022-12-04T03:21:14.069Z,22.90
2022-12-04T03:24:25.721Z,22.90
2022-12-04T03:27:36.622Z,23.43
2022-12-04T03:30:44.677Z,21.20
2022-12-04T03:33:50.837Z,21.70
2022-12-04T03:36:57.099Z,22.58
2022-12-04T03:40:06.305Z,20.70
2022-12-04T03:43:15.732Z,23.03
2022-12-04T03:46:28.173Z,20.20
2022-12-04T03:49:40.344Z,23.17
2022-12-04T03:52:53.585Z,23.10
2022-12-04T03:56:04.301Z,21.88
2022-12-04T03:59:13.711Z,24.37
2022-12-04T04:02:20.955Z,22.20
2022-12-04T04:05:29.668Z,22.77
2022-12-04T04:08:37.396Z,23.38
2022-12-04T04:11:46.611Z,22.23
2022-12-04T04:15:13.451Z,22.73
2022-12-04T04:18:33.711Z,22.57
2022-12-04T04:21:58.494Z,23.02
2022-12-04T04:25:05.202Z,22.58
2022-12-04T04:28:30.582Z,23.13
2022-12-04T04:31:40.477Z,20.90
2022-12-04T04:34:51.260Z,23.33
2022-12-04T04:38:03.950Z,23.25
2022-12-04T04:41:13.408Z,23.63
2022-12-04T04:44:23.497Z,21.80
2022-12-04T04:47:32.016Z,22.23
2022-12-04T04:50:37.505Z,21.40
2022-12-04T04:53:46.467Z,20.35
2022-12-04T04:56:50.455Z,23.20
2022-12-04T04:59:53.633Z,24.38
2022-12-04T05:02:56.690Z,23.20
2022-12-04T05:05:59.486Z,22.87
2022-12-04T05:09:04.887Z,23.75
2022-12-04T05:12:07.726Z,23.35
2022-12-04T05:15:12.760Z,22.58
2022-12-04T05:18:16.693Z,22.43
2022-12-04T05:21:19.700Z,21.23
2022-12-04T05:24:23.774Z,19.65
2022-12-04T05:27:28.735Z,22.63
2022-12-04T05:30:31.419Z,22.35
2022-12-04T05:33:35.404Z,22.07
2022-12-04T05:36:39.582Z,21.17
2022-12-04T05:39:44.040Z,21.80
2022-12-04T05:42:47.982Z,23.40
2022-12-04T05:45:50.695Z,21.70
2022-12-04T05:48:54.686Z,21.07
2022-12-04T05:51:58.879Z,20.83
2022-12-04T05:55:02.930Z,21.05
2022-12-04T05:58:07.074Z,23.65
2022-12-04T06:01:14.378Z,22.55
2022-12-04T06:07:38.872Z,21.53
2022-12-04T06:10:44.464Z,21.27
2022-12-04T06:13:48.807Z,20.60
2022-12-04T06:16:51.548Z,21.08
2022-12-04T06:19:57.267Z,21.83
2022-12-04T06:23:00.309Z,21.37
2022-12-04T06:26:07.448Z,20.98
2022-12-04T06:29:12.726Z,21.63
2022-12-04T06:32:21.459Z,21.90
2022-12-04T06:35:24.868Z,19.97
2022-12-04T06:41:50.965Z,21.38
2022-12-04T06:44:54.923Z,19.95
2022-12-04T06:47:58.860Z,22.38
2022-12-04T06:51:03.559Z,18.30
2022-12-04T06:54:07.540Z,21.40
2022-12-04T06:57:12.871Z,20.50
2022-12-04T07:00:16.747Z,21.02
2022-12-04T07:03:19.462Z,20.50
2022-12-04T07:06:24.935Z,21.17
2022-12-04T07:09:28.911Z,21.25
2022-12-04T07:12:33.025Z,21.88
2022-12-04T07:15:38.151Z,21.67
2022-12-04T07:18:41.006Z,22.03
2022-12-04T07:21:45.827Z,21.70
2022-12-04T07:24:48.533Z,21.42
2022-12-04T07:27:53.826Z,22.73
2022-12-04T07:30:56.548Z,21.38
2022-12-04T07:34:00.915Z,21.27
2022-12-04T07:37:03.771Z,20.77
2022-12-04T07:40:09.419Z,20.77
2022-12-04T07:43:13.503Z,19.50
2022-12-04T07:46:19.926Z,21.42
2022-12-04T07:49:22.704Z,19.47
2022-12-04T07:52:26.647Z,20.90
2022-12-04T07:55:29.306Z,21.83
2022-12-04T07:58:35.142Z,19.83
2022-12-04T08:01:37.908Z,24.55
2022-12-04T08:04:41.942Z,21.33
2022-12-04T08:07:46.188Z,21.42
2022-12-04T08:10:50.175Z,22.35
2022-12-04T08:13:58.026Z,21.70
2022-12-04T08:17:00.814Z,21.23
2022-12-04T08:20:05.115Z,19.53
2022-12-04T08:23:07.814Z,20.73
2022-12-04T08:26:12.815Z,20.70
2022-12-04T08:29:18.156Z,21.77
2022-12-04T08:32:20.841Z,20.77
2022-12-04T08:35:24.836Z,20.73
2022-12-04T08:38:27.514Z,21.45
2022-12-04T08:41:31.511Z,21.23
2022-12-04T08:44:35.539Z,22.42
2022-12-04T08:47:39.574Z,21.08
2022-12-04T08:50:46.249Z,20.57
2022-12-04T08:53:50.241Z,21.38
2022-12-04T08:56:54.190Z,20.52
2022-12-04T08:59:58.585Z,20.75
2022-12-04T09:03:02.726Z,21.48
2022-12-04T09:06:07.011Z,21.17
2022-12-04T09:09:10.968Z,19.27
2022-12-04T09:12:13.729Z,21.35
2022-12-04T09:15:19.261Z,20.08
2022-12-04T09:18:22.014Z,20.33
2022-12-04T09:21:27.334Z,20.23
2022-12-04T09:24:30.837Z,21.63
2022-12-04T09:27:38.760Z,21.77
2022-12-04T09:30:42.868Z,19.60
2022-12-04T09:33:47.486Z,20.70
2022-12-04T09:36:50.267Z,19.67
2022-12-04T09:39:54.476Z,20.85
2022-12-04T09:43:05.180Z,20.52
2022-12-04T09:46:14.995Z,19.35
2022-12-04T09:49:23.682Z,19.63
2022-12-04T09:52:42.349Z,20.30
2022-12-04T09:55:52.750Z,21.15
2022-12-04T09:59:02.567Z,21.85
2022-12-04T10:02:28.944Z,21.30
2022-12-04T10:05:43.906Z,19.75
2022-12-04T10:08:52.177Z,19.80
2022-12-04T10:12:04.052Z,20.55
2022-12-04T10:15:21.727Z,20.08
2022-12-04T10:18:42.613Z,21.55
2022-12-04T10:21:56.484Z,20.80
2022-12-04T10:25:04.846Z,20.37
2022-12-04T10:28:29.707Z,19.73
2022-12-04T10:31:33.752Z,20.92
2022-12-04T10:34:44.063Z,20.25
2022-12-04T10:37:52.472Z,21.20
2022-12-04T10:41:02.134Z,20.00
2022-12-04T10:44:06.583Z,19.77
2022-12-04T10:47:12.192Z,20.23
2022-12-04T10:50:21.747Z,19.67
2022-12-04T10:53:31.751Z,20.67
2022-12-04T10:56:35.780Z,18.93
2022-12-04T10:59:41.109Z,19.15
2022-12-04T11:02:45.427Z,20.20
2022-12-04T11:05:57.781Z,19.80
2022-12-04T11:09:03.245Z,19.45
2022-12-04T11:12:09.669Z,20.07
2022-12-04T11:15:16.955Z,19.10
2022-12-04T11:18:21.587Z,20.48
2022-12-04T11:21:30.058Z,19.35
2022-12-04T11:24:35.544Z,21.25
2022-12-04T11:31:04.467Z,18.20
2022-12-04T11:34:09.891Z,19.90
2022-12-04T11:40:49.386Z,18.90
2022-12-04T11:43:59.399Z,19.97
2022-12-04T11:47:24.574Z,20.38
2022-12-04T11:50:48.268Z,19.60
2022-12-04T11:54:01.296Z,19.15
2022-12-04T11:57:17.686Z,19.23
2022-12-04T12:03:58.740Z,19.67
2022-12-04T12:07:17.006Z,19.17
2022-12-04T12:10:30.447Z,20.35
2022-12-04T12:13:44.261Z,20.73
2022-12-04T12:16:59.282Z,19.03
2022-12-04T12:20:16.859Z,19.48
2022-12-04T12:23:31.363Z,19.50
2022-12-04T12:26:46.804Z,18.40
2022-12-04T12:29:59.171Z,20.52
2022-12-04T12:33:13.011Z,19.97
2022-12-04T12:36:17.756Z,19.17
2022-12-04T12:39:25.928Z,19.13
2022-12-04T12:42:36.877Z,19.08
2022-12-04T12:45:46.700Z,19.08
2022-12-04T12:48:58.577Z,18.07
2022-12-04T12:52:06.460Z,17.83
2022-12-04T12:55:19.282Z,18.50
2022-12-04T12:58:31.570Z,19.40
2022-12-04T13:01:46.711Z,18.55
2022-12-04T13:04:53.025Z,20.30
2022-12-04T13:08:05.898Z,19.77
2022-12-04T13:11:14.828Z,18.83
2022-12-04T13:14:20.179Z,19.50
2022-12-04T13:17:29.642Z,19.67
2022-12-04T13:20:41.438Z,18.13
2022-12-04T13:23:56.653Z,18.45
2022-12-04T13:30:41.045Z,18.67
2022-12-04T13:34:10.139Z,18.77
2022-12-04T13:37:33.097Z,19.43
2022-12-04T13:40:41.114Z,18.52
2022-12-04T13:43:49.588Z,19.75
2022-12-04T13:46:58.410Z,18.75
2022-12-04T13:50:29.679Z,20.27
2022-12-04T13:53:34.184Z,19.27
2022-12-04T13:56:38.124Z,19.23
2022-12-04T14:03:08.514Z,18.85
2022-12-04T14:06:25.424Z,19.80
2022-12-04T14:09:31.920Z,19.03
2022-12-04T14:12:38.818Z,18.98
2022-12-04T14:15:43.320Z,20.40
2022-12-04T14:18:50.708Z,20.05
2022-12-04T14:21:55.323Z,19.75
2022-12-04T14:25:21.247Z,19.03
2022-12-04T14:28:42.173Z,18.98
2022-12-04T14:31:45.151Z,20.10
2022-12-04T14:34:51.824Z,19.45
2022-12-04T14:37:58.362Z,20.95
2022-12-04T14:44:31.674Z,18.02
2022-12-04T14:47:45.237Z,18.50
2022-12-04T14:50:58.477Z,17.58
2022-12-04T14:54:11.628Z,19.05
2022-12-04T14:57:29.582Z,19.20
2022-12-04T15:00:33.685Z,19.63
2022-12-04T15:03:42.368Z,20.08
2022-12-04T15:06:55.401Z,20.88
2022-12-04T15:10:21.435Z,20.00
2022-12-04T15:13:29.294Z,19.10
2022-12-04T15:16:32.061Z,18.88
2022-12-04T15:19:36.071Z,19.73
2022-12-04T15:22:40.248Z,19.20
2022-12-04T15:25:47.999Z,20.10
2022-12-04T15:28:53.585Z,19.97
2022-12-04T15:35:29.410Z,19.95
2022-12-04T15:38:35.524Z,20.25
2022-12-04T15:41:38.636Z,19.88
2022-12-04T15:44:53.868Z,19.60
2022-12-04T15:47:58.607Z,19.58
2022-12-04T15:51:06.590Z,20.67
2022-12-04T15:54:22.329Z,18.75
2022-12-04T15:57:29.009Z,21.52
2022-12-04T16:00:37.440Z,20.43
2022-12-04T16:03:49.136Z,19.50
2022-12-04T16:06:54.948Z,21.02
2022-12-04T16:10:04.088Z,19.35
2022-12-04T16:13:08.402Z,19.90
2022-12-04T16:16:14.944Z,20.73
2022-12-04T16:19:28.435Z,19.85
2022-12-04T16:22:31.388Z,21.90
2022-12-04T16:25:36.731Z,19.42
2022-12-04T16:28:39.448Z,20.35
2022-12-04T16:31:43.509Z,21.10
2022-12-04T16:38:10.009Z,21.30
2022-12-04T16:41:16.523Z,19.13
2022-12-04T16:44:20.596Z,18.85
2022-12-04T16:47:23.720Z,19.13
2022-12-04T16:50:28.106Z,19.60
2022-12-04T16:53:30.836Z,20.60
2022-12-04T16:56:36.212Z,19.52
2022-12-04T16:59:40.348Z,20.05
2022-12-04T17:02:44.121Z,19.67
2022-12-04T17:05:48.194Z,21.48
2022-12-04T17:08:50.897Z,19.98
2022-12-04T17:11:56.207Z,20.63
2022-12-04T17:14:59.106Z,20.52
2022-12-04T17:18:07.392Z,20.30
2022-12-04T17:21:13.798Z,19.50
2022-12-04T17:24:17.777Z,18.58
2022-12-04T17:27:23.240Z,18.52
2022-12-04T17:30:31.372Z,20.13
2022-12-04T17:33:37.086Z,20.37
2022-12-04T17:36:41.025Z,20.70
2022-12-04T17:39:45.000Z,22.88
2022-12-04T17:42:50.573Z,21.05
2022-12-04T17:45:54.527Z,21.23
2022-12-04T17:48:59.565Z,20.57
2022-12-04T17:52:07.005Z,19.40
2022-12-04T17:55:10.202Z,20.65
2022-12-04T17:58:15.572Z,21.10
2022-12-04T18:01:20.650Z,20.30
2022-12-04T18:04:24.833Z,21.20
2022-12-04T18:07:27.722Z,20.25
2022-12-04T18:10:31.813Z,22.92
2022-12-04T18:13:36.190Z,21.45
2022-12-04T18:16:42.593Z,21.52
2022-12-04T18:19:45.376Z,20.13
2022-12-04T18:22:49.358Z,21.80
2022-12-04T18:25:57.166Z,20.13
2022-12-04T18:29:01.364Z,19.80
2022-12-04T18:32:05.583Z,20.25
2022-12-04T18:35:10.282Z,19.37
2022-12-04T18:38:14.220Z,19.95
2022-12-04T18:41:16.951Z,19.95
2022-12-04T18:44:22.735Z,20.17
2022-12-04T18:47:28.054Z,20.27
2022-12-04T18:50:30.754Z,19.87
2022-12-04T18:53:34.757Z,17.73
2022-12-04T18:56:37.753Z,17.98
2022-12-04T18:59:43.182Z,18.15
2022-12-04T19:02:46.917Z,20.35
2022-12-04T19:05:51.775Z,19.60
2022-12-04T19:08:54.502Z,19.58
2022-12-04T19:11:58.508Z,17.95
2022-12-04T19:15:02.659Z,18.33
2022-12-04T19:21:29.283Z,18.43
2022-12-04T19:24:32.213Z,19.70
2022-12-04T19:27:36.260Z,18.77
2022-12-04T19:30:40.346Z,18.30
2022-12-04T19:33:44.319Z,20.30
2022-12-04T19:36:47.282Z,20.43
2022-12-04T19:39:51.282Z,18.85
2022-12-04T19:43:01.108Z,18.98
2022-12-04T19:46:09.226Z,17.42
2022-12-04T19:52:34.714Z,18.87
2022-12-04T19:55:39.037Z,18.75
2022-12-04T19:58:43.615Z,19.80
2022-12-04T20:01:48.048Z,18.42
2022-12-04T20:04:52.128Z,18.95
2022-12-04T20:07:56.094Z,19.93
2022-12-04T20:11:04.375Z,17.70
2022-12-04T20:14:08.541Z,18.30
2022-12-04T20:17:13.917Z,19.55
2022-12-04T20:20:18.142Z,19.20
2022-12-04T20:23:20.833Z,17.53
2022-12-04T20:26:26.568Z,17.63
2022-12-04T20:29:29.264Z,18.05
2022-12-04T20:32:36.226Z,19.20
2022-12-04T20:35:40.986Z,19.33
2022-12-04T20:38:45.082Z,17.80
2022-12-04T20:41:48.136Z,17.55
2022-12-04T20:44:52.093Z,20.45
2022-12-04T20:47:58.462Z,18.55
2022-12-04T20:51:01.918Z,18.13
2022-12-04T20:54:06.711Z,19.17
2022-12-04T20:57:09.713Z,18.60
2022-12-04T21:00:15.724Z,18.23
2022-12-04T21:03:21.098Z,17.95
2022-12-04T21:06:29.629Z,18.77
2022-12-04T21:09:36.633Z,17.87
2022-12-04T21:12:56.823Z,18.25
2022-12-04T21:16:06.566Z,16.42
2022-12-04T21:19:12.111Z,16.95
2022-12-04T21:22:16.375Z,18.25
2022-12-04T21:25:19.210Z,18.73
2022-12-04T21:28:23.186Z,18.08
2022-12-04T21:34:53.142Z,18.30
2022-12-04T21:37:56.676Z,19.63
2022-12-04T21:41:00.585Z,17.23
2022-12-04T21:44:05.370Z,18.63
2022-12-04T21:47:09.472Z,18.20
2022-12-04T21:50:13.622Z,18.45
2022-12-04T21:53:17.694Z,18.60
2022-12-04T21:56:20.432Z,19.77
2022-12-04T21:59:24.513Z,17.75
2022-12-04T22:02:28.615Z,18.38
2022-12-04T22:05:35.398Z,17.45
2022-12-04T22:08:41.435Z,17.40
2022-12-04T22:11:44.769Z,17.90
2022-12-04T22:18:09.808Z,19.35
2022-12-04T22:24:37.127Z,19.48
2022-12-04T22:27:41.129Z,17.97
2022-12-04T22:30:44.112Z,18.40
2022-12-04T22:33:49.223Z,19.48
2022-12-04T22:36:54.551Z,19.17
2022-12-04T22:39:57.455Z,18.25
2022-12-04T22:43:01.618Z,19.40
2022-12-04T22:46:04.605Z,19.40
2022-12-04T22:49:08.656Z,19.13
2022-12-04T22:52:13.946Z,18.67
2022-12-04T22:55:16.754Z,18.60
2022-12-04T22:58:20.743Z,18.65
2022-12-04T23:01:25.162Z,18.02
2022-12-04T23:04:29.408Z,19.20
2022-12-04T23:07:33.536Z,18.57
2022-12-04T23:10:39.554Z,18.70
2022-12-04T23:13:44.275Z,17.80
2022-12-04T23:16:47.275Z,19.35
2022-12-04T23:19:51.413Z,18.20
2022-12-04T23:22:57.367Z,18.20
2022-12-04T23:26:03.051Z,19.33
2022-12-04T23:29:29.517Z,17.17
2022-12-04T23:32:31.613Z,17.98
2022-12-04T23:35:34.299Z,17.00
2022-12-04T23:38:42.722Z,18.42
2022-12-04T23:41:46.743Z,19.83
2022-12-04T23:44:49.447Z,18.40
2022-12-04T23:47:53.417Z,19.33
2022-12-04T23:50:56.252Z,17.83
2022-12-04T23:54:01.581Z,19.08
2022-12-04T23:57:05.692Z,19.75
